createdAt,value
2024-01-21T00:00:16.530Z,4.12
2024-01-21T00:03:05.786Z,4.36
2024-01-21T00:05:34.330Z,4.09
2024-01-21T00:08:02.683Z,3.89
2024-01-21T00:10:30.960Z,3.99
2024-01-21T00:12:59.123Z,3.75
2024-01-21T00:15:27.784Z,3.81
2024-01-21T00:17:56.384Z,3.81
2024-01-21T00:20:24.816Z,3.85
2024-01-21T00:22:52.998Z,4.03
2024-01-21T00:25:21.524Z,3.96
2024-01-21T00:27:49.831Z,3.85
2024-01-21T00:30:18.037Z,3.99
2024-01-21T00:32:46.322Z,3.97
2024-01-21T00:35:14.668Z,4.04
2024-01-21T00:37:42.909Z,4.05
2024-01-21T00:40:11.744Z,4.01
2024-01-21T00:42:39.810Z,4.10
2024-01-21T00:45:09.090Z,4.20
2024-01-21T00:47:37.306Z,4.15
2024-01-21T00:50:06.273Z,4.20
2024-01-21T00:52:34.435Z,4.18
2024-01-21T00:55:02.700Z,4.21
2024-01-21T00:57:31.024Z,4.30
2024-01-21T00:59:59.443Z,4.21
2024-01-21T01:02:27.701Z,4.36
2024-01-21T01:04:55.830Z,4.24
2024-01-21T01:07:24.045Z,4.30
2024-01-21T01:09:52.468Z,4.30
2024-01-21T01:12:20.831Z,4.16
2024-01-21T01:14:48.981Z,3.99
2024-01-21T01:17:17.192Z,4.02
2024-01-21T01:19:45.716Z,3.98
2024-01-21T01:22:13.990Z,3.97
2024-01-21T01:24:43.277Z,3.87
2024-01-21T01:27:11.508Z,3.85
2024-01-21T01:29:40.422Z,4.10
2024-01-21T01:32:08.543Z,4.02
2024-01-21T01:34:36.885Z,4.01
2024-01-21T01:37:06.012Z,4.02
2024-01-21T01:39:34.222Z,4.15
2024-01-21T01:42:02.743Z,4.21
2024-01-21T01:44:30.945Z,4.14
2024-01-21T01:46:59.222Z,4.12
2024-01-21T01:49:28.290Z,4.10
2024-01-21T01:51:56.660Z,3.93
2024-01-21T01:54:24.922Z,4.18
2024-01-21T01:56:53.116Z,4.29
2024-01-21T01:59:21.248Z,4.01
2024-01-21T02:01:49.587Z,4.06
2024-01-21T02:04:18.019Z,4.09
2024-01-21T02:06:46.394Z,4.30
2024-01-21T02:09:14.742Z,4.31
2024-01-21T02:11:42.990Z,4.21
2024-01-21T02:14:14.339Z,4.36
2024-01-21T02:16:42.540Z,4.48
2024-01-21T02:19:28.690Z,4.56
2024-01-21T02:21:57.070Z,4.72
2024-01-21T02:24:32.311Z,4.79
2024-01-21T02:27:00.835Z,4.87
2024-01-21T02:29:28.968Z,4.92
2024-01-21T02:31:58.069Z,4.83
2024-01-21T02:34:26.193Z,4.51
2024-01-21T02:36:54.383Z,4.49
2024-01-21T02:39:22.913Z,4.52
2024-01-21T02:41:51.093Z,4.63
2024-01-21T02:44:19.444Z,4.60
2024-01-21T02:46:47.629Z,4.67
2024-01-21T02:49:18.126Z,4.54
2024-01-21T02:51:46.577Z,4.49
2024-01-21T02:54:14.824Z,4.43
2024-01-21T02:56:43.173Z,4.40
2024-01-21T02:59:11.806Z,4.35
2024-01-21T03:01:40.610Z,4.38
2024-01-21T03:04:13.440Z,4.52
2024-01-21T03:06:41.999Z,4.60
2024-01-21T03:09:10.265Z,4.60
2024-01-21T03:11:41.648Z,4.68
2024-01-21T03:14:09.840Z,4.64
2024-01-21T03:16:38.023Z,4.68
2024-01-21T03:19:06.185Z,4.70
2024-01-21T03:21:34.782Z,4.70
2024-01-21T03:24:02.872Z,4.76
2024-01-21T03:26:31.082Z,4.70
2024-01-21T03:28:59.250Z,4.66
2024-01-21T03:31:29.395Z,4.55
2024-01-21T03:33:57.611Z,4.56
2024-01-21T03:36:26.012Z,4.52
2024-01-21T03:38:54.292Z,4.42
2024-01-21T03:41:22.452Z,4.62
2024-01-21T03:43:50.650Z,4.75
2024-01-21T03:46:19.734Z,4.89
2024-01-21T03:48:48.041Z,4.94
2024-01-21T03:51:16.221Z,4.98
2024-01-21T03:53:44.370Z,4.95
2024-01-21T03:56:22.159Z,4.86
2024-01-21T03:58:50.433Z,4.89
2024-01-21T04:01:19.074Z,5.01
2024-01-21T04:03:47.566Z,5.03
2024-01-21T04:06:15.913Z,5.02
2024-01-21T04:08:44.453Z,5.02
2024-01-21T04:11:12.985Z,5.06
2024-01-21T04:13:41.319Z,5.02
2024-01-21T04:16:09.587Z,5.00
2024-01-21T04:18:38.051Z,5.07
2024-01-21T04:21:06.497Z,5.19
2024-01-21T04:23:34.558Z,5.17
2024-01-21T04:26:02.814Z,5.11
2024-01-21T04:28:31.416Z,4.98
2024-01-21T04:30:59.703Z,5.03
2024-01-21T04:33:28.062Z,5.04
2024-01-21T04:35:56.299Z,4.95
2024-01-21T04:38:26.899Z,4.96
2024-01-21T04:40:55.301Z,4.71
2024-01-21T04:43:23.476Z,4.78
2024-01-21T04:45:51.806Z,4.74
2024-01-21T04:48:20.245Z,4.71
2024-01-21T04:50:48.712Z,4.71
2024-01-21T04:53:16.982Z,4.72
2024-01-21T04:55:45.186Z,4.68
2024-01-21T04:58:13.366Z,4.52
2024-01-21T05:00:41.594Z,4.41
2024-01-21T05:03:10.430Z,4.57
2024-01-21T05:05:38.871Z,4.70
2024-01-21T05:08:07.722Z,4.77
2024-01-21T05:10:36.448Z,4.79
2024-01-21T05:13:05.050Z,4.73
2024-01-21T05:15:33.321Z,4.75
2024-01-21T05:18:01.675Z,4.68
2024-01-21T05:20:30.069Z,4.61
2024-01-21T05:22:58.234Z,4.72
2024-01-21T05:25:26.809Z,4.66
2024-01-21T05:27:54.973Z,4.55
2024-01-21T05:30:23.813Z,4.65
2024-01-21T05:32:52.599Z,4.61
2024-01-21T05:35:20.880Z,4.65
2024-01-21T05:37:49.130Z,4.42
2024-01-21T05:40:17.899Z,3.47
2024-01-21T05:42:46.210Z,2.54
2024-01-21T05:45:14.527Z,1.82
2024-01-21T05:47:42.903Z,1.74
2024-01-21T05:50:11.459Z,2.42
2024-01-21T05:52:39.684Z,3.05
2024-01-21T05:55:08.960Z,3.60
2024-01-21T05:57:37.148Z,4.02
2024-01-21T06:00:06.368Z,4.34
2024-01-21T06:02:42.333Z,4.62
2024-01-21T06:05:10.730Z,4.76
2024-01-21T06:07:38.914Z,4.79
2024-01-21T06:10:08.404Z,4.32
2024-01-21T06:12:37.488Z,3.32
2024-01-21T06:15:06.556Z,2.43
2024-01-21T06:17:34.975Z,1.75
2024-01-21T06:20:05.841Z,1.33
2024-01-21T06:22:34.964Z,1.91
2024-01-21T06:25:03.752Z,2.66
2024-01-21T06:27:32.100Z,3.17
2024-01-21T06:30:15.498Z,3.50
2024-01-21T06:32:53.622Z,3.68
2024-01-21T06:35:28.799Z,3.88
2024-01-21T06:37:57.382Z,4.11
2024-01-21T06:40:25.703Z,4.30
2024-01-21T06:42:54.121Z,4.39
2024-01-21T06:45:22.444Z,4.52
2024-01-21T06:47:51.705Z,4.34
2024-01-21T06:50:20.801Z,3.38
2024-01-21T06:52:50.412Z,2.51
2024-01-21T06:55:18.992Z,1.89
2024-01-21T06:57:47.222Z,1.43
2024-01-21T07:00:16.733Z,1.06
2024-01-21T07:02:44.949Z,0.95
2024-01-21T07:05:13.323Z,1.77
2024-01-21T07:07:41.473Z,2.65
2024-01-21T07:10:10.175Z,3.35
2024-01-21T07:12:38.342Z,3.92
2024-01-21T07:15:07.498Z,4.32
2024-01-21T07:17:35.659Z,4.04
2024-01-21T07:20:04.569Z,3.25
2024-01-21T07:22:32.785Z,2.64
2024-01-21T07:25:02.465Z,2.21
2024-01-21T07:27:32.605Z,1.90
2024-01-21T07:30:00.888Z,1.66
2024-01-21T07:32:29.299Z,1.45
2024-01-21T07:34:57.575Z,1.24
2024-01-21T07:37:25.816Z,1.02
2024-01-21T07:39:54.017Z,0.79
2024-01-21T07:42:22.306Z,0.63
2024-01-21T07:44:50.477Z,0.54
2024-01-21T07:47:18.655Z,0.46
2024-01-21T07:49:48.258Z,0.39
2024-01-21T07:52:18.029Z,0.35
2024-01-21T07:54:46.315Z,0.56
2024-01-21T07:57:15.152Z,1.69
2024-01-21T07:59:43.462Z,3.04
2024-01-21T08:02:11.673Z,3.86
2024-01-21T08:04:39.996Z,4.31
2024-01-21T08:07:08.708Z,4.70
2024-01-21T08:09:37.066Z,5.00
2024-01-21T08:12:06.188Z,5.03
2024-01-21T08:14:34.393Z,4.34
2024-01-21T08:17:03.357Z,3.66
2024-01-21T08:19:31.611Z,3.20
2024-01-21T08:21:59.951Z,2.84
2024-01-21T08:24:28.592Z,2.53
2024-01-21T08:26:59.140Z,2.58
2024-01-21T08:29:29.054Z,3.34
2024-01-21T08:31:57.903Z,4.00
2024-01-21T08:34:30.649Z,4.36
2024-01-21T08:36:59.954Z,4.69
2024-01-21T08:39:28.579Z,4.95
2024-01-21T08:41:56.737Z,5.05
2024-01-21T08:44:24.912Z,5.19
2024-01-21T08:46:53.186Z,5.13
2024-01-21T08:49:21.395Z,4.18
2024-01-21T08:51:49.900Z,3.42
2024-01-21T08:54:18.242Z,2.95
2024-01-21T08:56:47.118Z,2.57
2024-01-21T08:59:15.374Z,2.60
2024-01-21T09:01:43.671Z,3.34
2024-01-21T09:04:12.520Z,4.03
2024-01-21T09:06:43.471Z,4.62
2024-01-21T09:09:14.834Z,5.09
2024-01-21T09:11:43.103Z,5.34
2024-01-21T09:14:11.206Z,4.74
2024-01-21T09:16:39.451Z,4.13
2024-01-21T09:19:08.119Z,3.72
2024-01-21T09:21:36.545Z,3.41
2024-01-21T09:24:06.330Z,3.14
2024-01-21T09:26:35.485Z,2.92
2024-01-21T09:29:03.688Z,2.81
2024-01-21T09:31:31.889Z,3.57
2024-01-21T09:34:00.338Z,4.65
2024-01-21T09:36:28.851Z,5.44
2024-01-21T09:38:57.297Z,5.82
2024-01-21T09:41:51.705Z,5.35
2024-01-21T09:44:21.313Z,4.75
2024-01-21T09:46:54.188Z,4.42
2024-01-21T09:49:22.965Z,4.21
2024-01-21T09:51:52.284Z,4.03
2024-01-21T09:54:21.838Z,3.82
2024-01-21T09:56:50.216Z,4.13
2024-01-21T09:59:19.045Z,4.84
2024-01-21T10:01:47.564Z,5.78
2024-01-21T10:04:16.256Z,6.91
2024-01-21T10:06:45.173Z,6.40
2024-01-21T10:09:15.341Z,5.54
2024-01-21T10:11:44.247Z,4.77
2024-01-21T10:14:12.887Z,4.23
2024-01-21T10:16:44.496Z,4.89
2024-01-21T10:19:16.817Z,6.09
2024-01-21T10:21:45.110Z,5.94
2024-01-21T10:24:13.522Z,5.23
2024-01-21T10:26:44.682Z,4.58
2024-01-21T10:29:13.086Z,4.07
2024-01-21T10:31:41.375Z,3.73
2024-01-21T10:34:11.592Z,3.46
2024-01-21T10:36:39.931Z,3.24
2024-01-21T10:39:10.046Z,3.06
2024-01-21T10:41:38.459Z,3.09
2024-01-21T10:44:06.716Z,4.09
2024-01-21T10:46:35.169Z,4.99
2024-01-21T10:49:03.591Z,5.56
2024-01-21T10:51:32.059Z,5.44
2024-01-21T10:54:03.924Z,4.82
2024-01-21T10:56:32.101Z,4.35
2024-01-21T10:59:00.232Z,4.17
2024-01-21T11:01:28.556Z,4.07
2024-01-21T11:04:11.743Z,4.09
2024-01-21T11:06:48.041Z,4.26
2024-01-21T11:09:22.845Z,4.39
2024-01-21T11:11:55.352Z,4.38
2024-01-21T11:14:38.992Z,4.28
2024-01-21T11:17:09.093Z,4.80
2024-01-21T11:19:49.944Z,5.80
2024-01-21T11:22:21.673Z,6.21
2024-01-21T11:24:51.340Z,5.56
2024-01-21T11:27:22.256Z,4.89
2024-01-21T11:30:00.338Z,4.35
2024-01-21T11:32:30.972Z,3.97
2024-01-21T11:35:15.454Z,3.72
2024-01-21T11:37:44.443Z,3.49
2024-01-21T11:40:13.732Z,3.35
2024-01-21T11:42:43.878Z,3.22
2024-01-21T11:45:12.133Z,3.16
2024-01-21T11:47:41.976Z,3.15
2024-01-21T11:50:11.004Z,3.12
2024-01-21T11:52:39.565Z,3.05
2024-01-21T11:55:08.902Z,3.02
2024-01-21T11:57:37.338Z,2.98
2024-01-21T12:00:07.473Z,3.49
2024-01-21T12:02:40.497Z,4.54
2024-01-21T12:05:09.731Z,5.21
2024-01-21T12:07:38.036Z,4.84
2024-01-21T12:10:07.087Z,4.29
2024-01-21T12:12:35.278Z,3.89
2024-01-21T12:15:04.465Z,3.54
2024-01-21T12:17:33.072Z,3.22
2024-01-21T12:20:01.598Z,2.99
2024-01-21T12:22:41.041Z,3.15
2024-01-21T12:25:10.241Z,4.08
2024-01-21T12:27:44.933Z,4.93
2024-01-21T12:30:16.164Z,5.27
2024-01-21T12:32:53.011Z,4.74
2024-01-21T12:35:24.594Z,4.20
2024-01-21T12:37:53.705Z,3.85
2024-01-21T12:40:21.905Z,3.61
2024-01-21T12:42:50.216Z,3.41
2024-01-21T12:45:18.627Z,3.30
2024-01-21T12:47:47.797Z,3.28
2024-01-21T12:50:16.753Z,3.23
2024-01-21T12:52:45.030Z,3.59
2024-01-21T12:55:13.349Z,4.63
2024-01-21T12:57:41.748Z,5.38
2024-01-21T13:00:11.240Z,5.27
2024-01-21T13:02:40.163Z,4.57
2024-01-21T13:05:09.224Z,4.03
2024-01-21T13:07:37.623Z,3.60
2024-01-21T13:10:06.739Z,3.34
2024-01-21T13:12:35.084Z,3.23
2024-01-21T13:15:03.601Z,3.14
2024-01-21T13:17:35.326Z,3.03
2024-01-21T13:20:04.503Z,2.84
2024-01-21T13:22:33.959Z,2.61
2024-01-21T13:25:02.766Z,2.93
2024-01-21T13:27:41.550Z,3.93
2024-01-21T13:30:29.286Z,4.79
2024-01-21T13:32:57.596Z,4.90
2024-01-21T13:35:26.082Z,4.26
2024-01-21T13:37:55.036Z,3.75
2024-01-21T13:40:23.670Z,3.39
2024-01-21T13:42:52.768Z,3.07
2024-01-21T13:45:21.113Z,2.78
2024-01-21T13:47:49.427Z,2.51
2024-01-21T13:50:17.762Z,2.26
2024-01-21T13:52:46.250Z,2.04
2024-01-21T13:55:15.000Z,1.85
2024-01-21T13:57:43.457Z,1.69
2024-01-21T14:00:12.913Z,1.53
2024-01-21T14:02:41.281Z,1.35
2024-01-21T14:05:10.277Z,1.17
2024-01-21T14:07:38.445Z,1.00
2024-01-21T14:10:07.732Z,0.84
2024-01-21T14:12:39.798Z,0.69
2024-01-21T14:15:09.042Z,0.55
2024-01-21T14:17:37.194Z,0.42
2024-01-21T14:20:06.378Z,0.29
2024-01-21T14:22:34.655Z,0.15
2024-01-21T14:25:27.196Z,0.02
2024-01-21T14:27:56.120Z,-0.10
2024-01-21T14:30:35.487Z,-0.20
2024-01-21T14:33:04.860Z,-0.30
2024-01-21T14:35:33.423Z,-0.40
2024-01-21T14:38:01.676Z,-0.50
2024-01-21T14:40:29.802Z,-0.60
2024-01-21T14:42:58.853Z,-0.69
2024-01-21T14:45:27.302Z,-0.41
2024-01-21T14:47:55.751Z,0.69
2024-01-21T14:50:23.985Z,1.68
2024-01-21T14:52:52.365Z,2.36
2024-01-21T14:55:20.633Z,2.86
2024-01-21T14:57:48.966Z,3.27
2024-01-21T15:00:18.797Z,3.58
2024-01-21T15:02:47.210Z,3.83
2024-01-21T15:05:15.568Z,4.06
2024-01-21T15:07:48.372Z,3.55
2024-01-21T15:10:18.699Z,2.56
2024-01-21T15:12:47.110Z,1.78
2024-01-21T15:15:18.035Z,1.24
2024-01-21T15:17:48.060Z,0.82
2024-01-21T15:20:17.511Z,0.47
2024-01-21T15:22:46.235Z,0.15
2024-01-21T15:25:14.782Z,-0.14
2024-01-21T15:27:43.149Z,-0.40
2024-01-21T15:30:12.636Z,-0.64
2024-01-21T15:32:41.185Z,-0.86
2024-01-21T15:35:09.725Z,-1.06
2024-01-21T15:37:37.997Z,-1.25
2024-01-21T15:40:07.768Z,-1.41
2024-01-21T15:42:36.013Z,-1.57
2024-01-21T15:45:11.482Z,-1.73
2024-01-21T15:47:40.875Z,-1.86
2024-01-21T15:50:10.277Z,-1.97
2024-01-21T15:52:38.475Z,-2.07
2024-01-21T15:55:07.751Z,-2.17
2024-01-21T15:57:36.054Z,-2.26
2024-01-21T16:00:05.594Z,-1.63
2024-01-21T16:02:38.292Z,-0.40
2024-01-21T16:05:07.700Z,0.51
2024-01-21T16:07:35.881Z,1.08
2024-01-21T16:10:04.794Z,1.49
2024-01-21T16:12:33.019Z,1.80
2024-01-21T16:15:01.591Z,2.12
2024-01-21T16:17:30.120Z,2.42
2024-01-21T16:19:58.437Z,2.66
2024-01-21T16:22:26.713Z,2.77
2024-01-21T16:24:55.528Z,2.06
2024-01-21T16:27:30.117Z,1.13
2024-01-21T16:30:01.932Z,0.37
2024-01-21T16:32:30.443Z,-0.18
2024-01-21T16:35:01.388Z,-0.64
2024-01-21T16:37:30.962Z,-1.03
2024-01-21T16:39:59.854Z,-1.32
2024-01-21T16:42:28.829Z,-1.57
2024-01-21T16:45:00.893Z,-1.78
2024-01-21T16:47:29.408Z,-1.98
2024-01-21T16:49:57.648Z,-2.16
2024-01-21T16:52:29.667Z,-2.34
2024-01-21T16:54:58.073Z,-2.52
2024-01-21T16:57:26.444Z,-2.66
2024-01-21T17:00:09.526Z,-2.72
2024-01-21T17:02:38.779Z,-1.55
2024-01-21T17:05:08.158Z,0.09
2024-01-21T17:07:37.589Z,0.92
2024-01-21T17:10:08.166Z,1.34
2024-01-21T17:12:39.217Z,1.64
2024-01-21T17:15:07.968Z,1.97
2024-01-21T17:17:36.393Z,2.27
2024-01-21T17:20:11.700Z,2.53
2024-01-21T17:22:39.943Z,2.73
2024-01-21T17:25:09.396Z,2.87
2024-01-21T17:27:37.672Z,2.97
2024-01-21T17:30:07.512Z,3.06
2024-01-21T17:32:35.949Z,2.91
2024-01-21T17:35:05.443Z,1.94
2024-01-21T17:37:33.652Z,0.97
2024-01-21T17:40:01.821Z,0.23
2024-01-21T17:42:30.084Z,-0.33
2024-01-21T17:44:59.705Z,-0.77
2024-01-21T17:47:29.136Z,-1.13
2024-01-21T17:49:57.600Z,-1.45
2024-01-21T17:52:25.656Z,-1.72
2024-01-21T17:54:53.965Z,-1.95
2024-01-21T17:57:22.094Z,-2.14
2024-01-21T17:59:50.389Z,-2.30
2024-01-21T18:02:18.646Z,-2.02
2024-01-21T18:04:46.961Z,-0.73
2024-01-21T18:07:15.241Z,0.42
2024-01-21T18:09:43.571Z,1.55
2024-01-21T18:12:11.875Z,2.05
2024-01-21T18:14:40.194Z,2.32
2024-01-21T18:17:08.497Z,2.56
2024-01-21T18:19:37.401Z,2.79
2024-01-21T18:22:06.481Z,3.00
2024-01-21T18:24:34.759Z,3.15
2024-01-21T18:27:03.019Z,2.56
2024-01-21T18:29:35.930Z,1.58
2024-01-21T18:32:06.756Z,0.79
2024-01-21T18:34:36.112Z,0.24
2024-01-21T18:37:06.214Z,-0.19
2024-01-21T18:39:34.454Z,-0.53
2024-01-21T18:42:02.914Z,-0.81
2024-01-21T18:44:33.461Z,-1.03
2024-01-21T18:47:01.776Z,-0.50
2024-01-21T18:49:31.362Z,0.60
2024-01-21T18:52:05.207Z,1.60
2024-01-21T18:54:37.551Z,2.31
2024-01-21T18:57:07.482Z,2.71
2024-01-21T18:59:35.850Z,2.97
2024-01-21T19:02:05.248Z,3.17
2024-01-21T19:04:38.674Z,3.09
2024-01-21T19:07:10.872Z,2.18
2024-01-21T19:09:40.020Z,1.32
2024-01-21T19:12:09.500Z,0.66
2024-01-21T19:14:38.263Z,0.17
2024-01-21T19:17:06.630Z,-0.02
2024-01-21T19:19:35.400Z,0.79
2024-01-21T19:22:03.902Z,1.59
2024-01-21T19:24:33.524Z,2.21
2024-01-21T19:27:01.697Z,2.58
2024-01-21T19:29:30.007Z,2.87
2024-01-21T19:31:58.128Z,3.14
2024-01-21T19:34:26.458Z,3.25
2024-01-21T19:36:55.968Z,2.53
2024-01-21T19:39:24.897Z,1.61
2024-01-21T19:41:53.243Z,0.91
2024-01-21T19:44:21.596Z,0.39
2024-01-21T19:46:49.927Z,-0.01
2024-01-21T19:49:18.103Z,0.04
2024-01-21T19:51:47.345Z,0.92
2024-01-21T19:54:18.049Z,1.61
2024-01-21T19:56:46.464Z,2.18
2024-01-21T19:59:15.206Z,2.63
2024-01-21T20:01:46.434Z,3.00
2024-01-21T20:04:16.152Z,3.05
2024-01-21T20:06:44.543Z,2.27
2024-01-21T20:09:13.173Z,1.39
2024-01-21T20:11:41.515Z,0.75
2024-01-21T20:14:10.374Z,0.28
2024-01-21T20:16:40.366Z,-0.10
2024-01-21T20:19:09.438Z,-0.41
2024-01-21T20:21:39.349Z,-0.64
2024-01-21T20:24:08.125Z,-0.82
2024-01-21T20:26:36.696Z,-1.00
2024-01-21T20:29:05.038Z,-1.14
2024-01-21T20:31:33.217Z,-0.84
2024-01-21T20:34:01.671Z,0.25
2024-01-21T20:36:30.135Z,1.13
2024-01-21T20:38:58.907Z,1.72
2024-01-21T20:41:27.982Z,2.16
2024-01-21T20:43:56.228Z,2.42
2024-01-21T20:46:24.601Z,2.68
2024-01-21T20:48:53.219Z,2.97
2024-01-21T20:51:21.666Z,2.85
2024-01-21T20:53:50.283Z,1.86
2024-01-21T20:56:21.402Z,0.99
2024-01-21T20:58:49.781Z,0.37
2024-01-21T21:01:18.693Z,0.49
2024-01-21T21:03:47.020Z,1.25
2024-01-21T21:06:15.493Z,1.93
2024-01-21T21:08:44.717Z,2.37
2024-01-21T21:11:13.329Z,2.66
2024-01-21T21:13:43.264Z,2.85
2024-01-21T21:16:12.031Z,2.36
2024-01-21T21:18:40.360Z,1.41
2024-01-21T21:21:08.660Z,0.65
2024-01-21T21:23:36.928Z,0.40
2024-01-21T21:26:05.299Z,1.18
2024-01-21T21:28:33.474Z,1.86
2024-01-21T21:31:01.597Z,2.32
2024-01-21T21:33:29.938Z,2.68
2024-01-21T21:35:59.332Z,2.58
2024-01-21T21:38:27.820Z,1.73
2024-01-21T21:40:56.054Z,0.97
2024-01-21T21:43:24.350Z,0.41
2024-01-21T21:45:52.525Z,0.80
2024-01-21T21:48:21.254Z,1.67
2024-01-21T21:50:50.321Z,2.20
2024-01-21T21:53:19.415Z,2.62
2024-01-21T21:55:48.295Z,3.25
2024-01-21T21:58:16.678Z,3.93
2024-01-21T22:00:48.905Z,3.60
2024-01-21T22:03:17.576Z,2.43
2024-01-21T22:05:46.367Z,1.50
2024-01-21T22:08:15.510Z,0.85
2024-01-21T22:10:43.880Z,0.36
2024-01-21T22:13:13.280Z,-0.01
2024-01-21T22:15:43.163Z,-0.31
2024-01-21T22:18:12.432Z,-0.60
2024-01-21T22:20:42.301Z,-0.37
2024-01-21T22:23:10.699Z,1.00
2024-01-21T22:25:39.077Z,2.21
2024-01-21T22:28:07.760Z,3.20
2024-01-21T22:30:36.018Z,3.75
2024-01-21T22:33:05.154Z,3.02
2024-01-21T22:35:33.654Z,1.90
2024-01-21T22:38:02.087Z,1.02
2024-01-21T22:40:31.445Z,0.36
2024-01-21T22:42:59.857Z,-0.10
2024-01-21T22:45:28.761Z,0.31
2024-01-21T22:47:57.218Z,1.61
2024-01-21T22:50:25.760Z,2.37
2024-01-21T22:52:53.980Z,2.48
2024-01-21T22:55:22.208Z,1.64
2024-01-21T22:57:50.533Z,0.79
2024-01-21T23:00:22.872Z,0.14
2024-01-21T23:02:51.332Z,-0.26
2024-01-21T23:05:20.995Z,0.49
2024-01-21T23:07:49.929Z,1.82
2024-01-21T23:10:18.206Z,2.64
2024-01-21T23:12:46.562Z,2.74
2024-01-21T23:15:15.351Z,1.87
2024-01-21T23:17:43.683Z,0.94
2024-01-21T23:20:13.093Z,0.29
2024-01-21T23:22:41.516Z,-0.21
2024-01-21T23:25:09.847Z,0.06
2024-01-21T23:27:38.301Z,1.26
2024-01-21T23:30:07.876Z,2.51
2024-01-21T23:32:36.152Z,3.18
2024-01-21T23:35:05.080Z,3.22
2024-01-21T23:37:33.379Z,2.26
2024-01-21T23:40:01.651Z,1.23
2024-01-21T23:42:29.861Z,0.45
2024-01-21T23:44:58.111Z,-0.16
2024-01-21T23:47:26.377Z,-0.04
2024-01-21T23:49:54.648Z,0.94
2024-01-21T23:52:22.935Z,1.57
2024-01-21T23:54:51.197Z,2.00
2024-01-21T23:57:20.808Z,2.18
2024-01-21T23:59:49.121Z,1.50
